createdAt,value
2022-09-06T10:05:08.815Z,443.00
2022-09-06T10:07:10.217Z,442.00
2022-09-06T10:08:08.728Z,441.00
2022-09-06T10:09:08.619Z,442.00
2022-09-06T10:10:08.607Z,444.00
2022-09-06T10:11:08.647Z,444.00
2022-09-06T10:12:08.594Z,443.00
2022-09-06T10:13:08.598Z,442.00
2022-09-06T10:14:08.568Z,442.00
2022-09-06T10:15:08.556Z,444.00
2022-09-06T10:16:08.557Z,443.00
2022-09-06T10:17:11.859Z,441.00
2022-09-06T10:18:08.496Z,441.00
2022-09-06T10:19:08.646Z,442.00
2022-09-06T10:20:08.470Z,439.00
2022-09-06T10:21:08.453Z,439.00
2022-09-06T10:22:08.437Z,438.00
2022-09-06T10:23:08.435Z,437.00
2022-09-06T10:25:09.398Z,433.00
2022-09-06T10:26:08.380Z,432.00
2022-09-06T10:27:08.410Z,434.00
2022-09-06T10:28:11.314Z,434.00
2022-09-06T10:29:08.377Z,432.00
2022-09-06T10:30:08.354Z,434.00
2022-09-06T10:31:08.381Z,435.00
2022-09-06T10:32:08.323Z,437.00
2022-09-06T10:33:08.286Z,438.00
2022-09-06T10:34:08.294Z,439.00
2022-09-06T10:35:08.311Z,440.00
2022-09-06T10:36:08.293Z,441.00
2022-09-06T10:37:08.233Z,440.00
2022-09-06T10:38:08.243Z,441.00
2022-09-06T10:39:08.272Z,440.00
2022-09-06T10:40:08.300Z,441.00
2022-09-06T10:41:08.194Z,442.00
2022-09-06T10:42:08.176Z,440.00
2022-09-06T10:43:08.163Z,439.00
2022-09-06T10:44:08.195Z,439.00
2022-09-06T10:45:08.134Z,439.00
2022-09-06T10:46:08.209Z,442.00
2022-09-06T10:47:08.145Z,441.00
2022-09-06T10:48:11.314Z,440.00
2022-09-06T10:49:09.099Z,441.00
2022-09-06T10:50:08.082Z,440.00
2022-09-06T10:51:08.053Z,442.00
2022-09-06T10:52:08.326Z,443.00
2022-09-06T10:53:08.021Z,446.00
2022-09-06T10:54:08.013Z,447.00
2022-09-06T10:55:08.021Z,445.00
2022-09-06T10:56:07.982Z,444.00
2022-09-06T10:57:08.216Z,446.00
2022-09-06T14:41:50.630Z,424.00
2022-09-06T14:42:50.977Z,424.00
2022-09-06T14:43:50.328Z,424.00
2022-09-06T14:44:50.250Z,425.00
2022-09-06T14:45:51.213Z,427.00
2022-09-06T14:46:50.234Z,429.00
2022-09-06T14:47:50.203Z,427.00
2022-09-06T14:48:50.183Z,427.00
2022-09-06T14:49:50.206Z,425.00
2022-09-06T14:50:50.191Z,426.00
2022-09-06T14:51:50.143Z,428.00
2022-09-06T14:52:50.399Z,427.00
2022-09-06T14:53:50.142Z,426.00
2022-09-06T14:54:50.113Z,425.00
2022-09-06T14:55:50.090Z,425.00
2022-09-06T14:56:50.082Z,426.00
2022-09-06T14:57:50.090Z,429.00
2022-09-06T14:58:50.074Z,429.00
2022-09-06T14:59:50.026Z,430.00
2022-09-06T15:00:50.031Z,428.00
2022-09-06T15:01:50.132Z,425.00
2022-09-06T15:02:50.091Z,426.00
2022-09-06T15:03:50.004Z,423.00
2022-09-06T15:04:50.030Z,423.00
2022-09-06T15:05:49.961Z,423.00
2022-09-06T15:06:49.967Z,427.00
2022-09-06T15:07:50.338Z,427.00
2022-09-06T15:08:49.951Z,430.00
2022-09-06T15:09:49.990Z,432.00
2022-09-06T15:10:49.888Z,431.00
2022-09-06T15:11:49.962Z,427.00
2022-09-06T15:12:49.877Z,425.00
2022-09-06T15:13:49.867Z,425.00
2022-09-06T15:14:49.907Z,423.00
2022-09-06T15:15:49.900Z,425.00
2022-09-06T15:16:54.799Z,426.00
2022-09-06T15:17:50.808Z,425.00
2022-09-06T15:18:49.766Z,427.00
2022-09-06T15:19:49.761Z,427.00
2022-09-06T15:20:49.767Z,426.00
2022-09-06T15:21:49.774Z,426.00
2022-09-06T15:22:56.357Z,427.00
2022-09-06T15:23:50.715Z,429.00
2022-09-06T15:24:49.704Z,429.00
2022-09-06T15:25:49.679Z,429.00
2022-09-06T15:26:49.694Z,428.00
2022-09-06T15:27:49.692Z,429.00
2022-09-06T15:28:49.648Z,431.00
2022-09-06T15:29:49.636Z,430.00
2022-09-06T15:30:49.774Z,429.00
2022-09-06T15:31:49.615Z,429.00
2022-09-06T15:32:49.577Z,428.00
2022-09-06T15:33:49.613Z,428.00
2022-09-06T15:34:49.595Z,426.00
2022-09-06T15:35:49.575Z,424.00
2022-09-06T15:36:49.546Z,424.00
2022-09-06T15:37:49.549Z,423.00
2022-09-06T15:38:49.540Z,427.00
2022-09-06T15:39:49.541Z,425.00
2022-09-06T15:40:49.513Z,426.00
2022-09-06T15:41:49.500Z,428.00
2022-09-06T15:42:49.538Z,429.00
2022-09-06T15:43:49.461Z,428.00
2022-09-06T15:44:49.485Z,428.00
2022-09-06T15:45:49.477Z,427.00
2022-09-06T15:46:49.418Z,424.00
2022-09-06T15:47:49.426Z,425.00
2022-09-06T15:48:49.385Z,422.00
2022-09-06T15:49:49.382Z,421.00
2022-09-06T15:50:51.511Z,422.00
2022-09-06T15:51:49.333Z,422.00
2022-09-06T15:52:49.331Z,423.00
2022-09-06T15:53:49.322Z,424.00
2022-09-06T15:54:49.319Z,424.00
2022-09-06T15:55:49.319Z,424.00
2022-09-06T15:56:49.283Z,425.00
2022-09-06T15:57:49.260Z,425.00
2022-09-06T15:58:49.256Z,426.00
2022-09-06T15:59:49.242Z,427.00
2022-09-06T16:00:53.989Z,426.00
2022-09-06T16:01:49.317Z,423.00
2022-09-06T16:02:49.266Z,424.00
2022-09-06T16:03:49.180Z,421.00
2022-09-06T16:04:49.180Z,420.00
2022-09-06T16:06:50.476Z,422.00
2022-09-06T16:07:49.140Z,424.00
2022-09-06T16:08:49.102Z,425.00
2022-09-06T16:09:49.084Z,425.00
2022-09-06T16:10:49.099Z,425.00
2022-09-06T16:11:49.079Z,425.00
2022-09-06T16:12:50.695Z,425.00
2022-09-06T16:13:49.041Z,428.00
2022-09-06T16:14:49.037Z,428.00
2022-09-06T16:15:49.001Z,427.00
2022-09-06T16:16:49.072Z,428.00
2022-09-06T16:17:49.017Z,428.00
2022-09-06T16:18:48.969Z,428.00
2022-09-06T16:19:48.945Z,427.00
2022-09-06T16:20:48.990Z,424.00
2022-09-06T16:21:48.955Z,421.00
2022-09-06T16:22:48.937Z,421.00
2022-09-06T16:23:48.907Z,422.00
2022-09-06T16:24:48.929Z,422.00
2022-09-06T16:25:48.876Z,422.00
2022-09-06T16:26:48.879Z,423.00
2022-09-06T16:27:48.854Z,425.00
2022-09-06T16:28:48.889Z,424.00
2022-09-06T16:29:48.825Z,424.00
2022-09-06T16:30:48.910Z,426.00
2022-09-06T16:31:48.830Z,426.00
2022-09-06T16:32:48.784Z,429.00
2022-09-06T16:33:48.903Z,432.00
2022-09-06T16:34:48.768Z,433.00
2022-09-06T16:35:48.735Z,431.00
2022-09-06T16:36:48.746Z,431.00
2022-09-06T16:37:48.737Z,427.00
2022-09-06T16:38:48.703Z,430.00
2022-09-06T16:39:48.714Z,431.00
2022-09-06T16:40:49.677Z,431.00
2022-09-06T16:41:48.723Z,434.00
2022-09-06T16:42:48.686Z,435.00
2022-09-06T16:43:48.655Z,435.00
2022-09-06T16:44:48.616Z,434.00
2022-09-06T16:45:48.637Z,434.00
2022-09-06T16:46:48.586Z,432.00
2022-09-06T16:47:48.632Z,432.00
2022-09-06T16:48:48.633Z,432.00
2022-09-06T16:49:48.594Z,431.00
2022-09-06T16:50:48.584Z,431.00
2022-09-06T16:51:48.542Z,432.00
2022-09-06T16:52:48.558Z,431.00
2022-09-06T16:53:48.534Z,433.00
2022-09-06T16:54:48.528Z,432.00
2022-09-06T16:55:48.483Z,430.00
2022-09-06T16:56:48.455Z,430.00
2022-09-06T16:57:48.472Z,428.00
2022-09-06T16:58:48.453Z,425.00
2022-09-06T16:59:48.435Z,426.00
2022-09-06T17:00:48.473Z,429.00
2022-09-06T17:01:48.508Z,431.00
2022-09-06T17:02:48.501Z,431.00
2022-09-06T17:03:48.392Z,429.00
2022-09-06T17:04:48.403Z,429.00
2022-09-06T17:05:48.352Z,427.00
2022-09-06T17:06:48.329Z,428.00
2022-09-06T17:07:48.312Z,428.00
2022-09-06T17:08:48.311Z,427.00
2022-09-06T17:09:48.322Z,426.00
2022-09-06T17:10:48.270Z,426.00
2022-09-06T17:11:48.329Z,425.00
2022-09-06T17:12:48.271Z,425.00
2022-09-06T17:13:48.230Z,425.00
2022-09-06T17:14:48.221Z,425.00
2022-09-06T17:15:48.200Z,428.00
2022-09-06T17:16:48.269Z,430.00
2022-09-06T17:17:48.219Z,432.00
2022-09-06T17:18:48.200Z,432.00
2022-09-06T17:19:48.984Z,431.00
2022-09-06T17:20:48.144Z,431.00
2022-09-06T17:21:48.190Z,431.00
2022-09-06T17:22:48.139Z,431.00
2022-09-06T17:23:48.127Z,432.00
2022-09-06T17:24:48.107Z,433.00
2022-09-06T17:25:48.079Z,434.00
2022-09-06T17:26:48.091Z,435.00
2022-09-06T17:27:48.066Z,434.00
2022-09-06T17:28:48.090Z,433.00
2022-09-06T17:29:48.030Z,433.00
2022-09-06T17:30:48.074Z,430.00
2022-09-06T17:31:47.999Z,429.00
2022-09-06T17:32:48.061Z,427.00
2022-09-06T17:33:48.018Z,426.00
2022-09-06T17:34:48.007Z,427.00
2022-09-06T17:35:47.977Z,426.00
2022-09-06T17:36:47.957Z,422.00
2022-09-06T17:37:47.918Z,424.00
2022-09-06T17:38:52.754Z,426.00
2022-09-06T17:39:48.920Z,427.00
2022-09-06T17:40:47.886Z,429.00
2022-09-06T17:41:47.889Z,428.00
2022-09-06T17:42:47.860Z,428.00
2022-09-06T17:43:47.884Z,425.00
2022-09-06T17:44:48.687Z,423.00
2022-09-06T17:45:47.859Z,421.00
2022-09-06T17:47:09.108Z,421.00
2022-09-06T17:47:48.784Z,421.00
2022-09-06T17:48:47.793Z,420.00
2022-09-06T17:49:47.748Z,417.00
2022-09-06T17:50:47.737Z,417.00
2022-09-06T17:51:47.775Z,419.00
2022-09-06T17:52:47.735Z,420.00
2022-09-06T17:53:47.702Z,423.00
2022-09-06T17:54:47.705Z,423.00
2022-09-06T17:55:47.665Z,421.00
2022-09-06T17:56:47.668Z,421.00
2022-09-06T17:57:47.692Z,420.00
2022-09-06T17:58:47.645Z,421.00
2022-09-06T17:59:47.655Z,421.00
2022-09-06T18:00:47.643Z,418.00
2022-09-06T18:01:47.642Z,416.00
2022-09-06T18:02:47.593Z,416.00
2022-09-06T18:03:47.604Z,420.00
2022-09-06T18:04:47.589Z,421.00
2022-09-06T18:05:47.623Z,422.00
2022-09-06T18:06:47.525Z,423.00
2022-09-06T18:07:47.512Z,425.00
2022-09-06T18:08:47.495Z,426.00
2022-09-06T18:09:47.540Z,425.00
2022-09-06T18:10:47.465Z,427.00
2022-09-06T18:11:47.459Z,426.00
2022-09-06T18:12:47.440Z,422.00
2022-09-06T18:13:47.439Z,423.00
2022-09-06T18:14:47.415Z,421.00
2022-09-06T18:15:47.414Z,419.00
2022-09-06T18:16:47.690Z,421.00
2022-09-06T18:17:47.372Z,424.00
2022-09-06T18:18:47.353Z,423.00
2022-09-06T18:19:47.351Z,423.00
2022-09-06T18:20:47.332Z,424.00
2022-09-06T18:21:47.345Z,425.00
2022-09-06T18:22:47.331Z,425.00
2022-09-06T18:23:47.291Z,424.00
2022-09-06T18:24:47.318Z,421.00
2022-09-06T18:25:47.260Z,419.00
2022-09-06T18:26:47.271Z,419.00
2022-09-06T18:27:55.059Z,419.00
2022-09-06T18:28:47.298Z,420.00
2022-09-06T18:29:47.270Z,423.00
2022-09-06T18:30:47.199Z,424.00
2022-09-06T18:31:47.254Z,425.00
2022-09-06T18:32:47.189Z,424.00
2022-09-06T18:33:47.168Z,420.00
2022-09-06T18:34:47.179Z,420.00
2022-09-06T18:35:47.120Z,421.00
2022-09-06T18:36:47.108Z,423.00
2022-09-06T18:37:47.098Z,425.00
2022-09-06T18:38:47.129Z,425.00
2022-09-06T18:39:47.191Z,423.00
2022-09-06T18:40:47.076Z,424.00
2022-09-06T18:41:47.076Z,424.00
2022-09-06T18:42:47.036Z,422.00
2022-09-06T18:43:47.027Z,421.00
2022-09-06T18:44:47.006Z,419.00
2022-09-06T18:45:47.022Z,420.00
2022-09-06T18:46:47.009Z,421.00
2022-09-06T18:47:49.864Z,421.00
2022-09-06T18:48:46.976Z,420.00
2022-09-06T18:49:47.927Z,420.00
2022-09-06T18:50:46.952Z,420.00
2022-09-06T18:51:46.925Z,418.00
2022-09-06T18:52:46.944Z,419.00
2022-09-06T18:53:47.296Z,421.00
2022-09-06T18:54:46.887Z,421.00
2022-09-06T18:55:46.875Z,420.00
2022-09-06T18:56:46.867Z,420.00
2022-09-06T18:57:46.932Z,420.00
2022-09-06T18:58:46.824Z,422.00
2022-09-06T18:59:46.793Z,421.00
2022-09-06T19:00:46.887Z,422.00
2022-09-06T19:01:46.887Z,423.00
2022-09-06T19:02:46.766Z,425.00
2022-09-06T19:03:46.774Z,425.00
2022-09-06T19:04:46.763Z,422.00
2022-09-06T19:05:46.794Z,422.00
2022-09-06T19:06:46.737Z,422.00
2022-09-06T19:07:46.695Z,422.00
2022-09-06T19:08:46.683Z,422.00
2022-09-06T19:09:46.692Z,423.00
2022-09-06T19:10:46.694Z,424.00
2022-09-06T19:11:46.622Z,424.00
2022-09-06T19:12:49.222Z,422.00
2022-09-06T19:13:47.623Z,421.00
2022-09-06T19:14:46.592Z,420.00
2022-09-06T19:15:46.595Z,419.00
2022-09-06T19:41:12.831Z,413.00
2022-09-06T19:42:14.706Z,415.00
2022-09-06T19:43:12.766Z,415.00
2022-09-06T19:44:12.685Z,415.00
2022-09-06T19:45:12.670Z,415.00
2022-09-06T19:46:12.710Z,417.00
2022-09-06T19:47:12.763Z,416.00
2022-09-06T19:48:12.650Z,416.00
2022-09-06T19:49:12.687Z,416.00
2022-09-06T19:50:12.618Z,419.00
2022-09-06T19:51:12.719Z,416.00
2022-09-06T19:52:12.598Z,418.00
2022-09-06T19:53:12.655Z,417.00
2022-09-06T19:54:12.591Z,419.00
2022-09-06T19:55:12.549Z,423.00
2022-09-06T19:56:12.544Z,425.00
2022-09-06T19:57:12.552Z,425.00
2022-09-06T19:58:12.569Z,425.00
2022-09-06T19:59:12.510Z,425.00
2022-09-06T20:00:12.505Z,424.00
2022-09-06T20:01:12.631Z,423.00
2022-09-06T20:02:12.491Z,424.00
2022-09-06T20:03:12.463Z,424.00
2022-09-06T20:04:12.523Z,424.00
2022-09-06T20:05:12.447Z,422.00
2022-09-06T20:06:12.483Z,420.00
2022-09-06T20:07:12.397Z,422.00
